sensor_id;sensor_type;location;lat;lon;timestamp;pressure;altitude;pressure_sealevel;temperature;humidity
43818;BME280;29868;47.360;18.984;2023-04-28T00:02:12;100877.34;;;2.31;100.00
43818;BME280;29868;47.360;18.984;2023-04-28T00:04:37;100877.03;;;2.25;100.00
43818;BME280;29868;47.360;18.984;2023-04-28T00:07:02;100877.66;;;2.21;100.00
43818;BME280;29868;47.360;18.984;2023-04-28T00:09:28;100875.09;;;2.21;100.00
43818;BME280;29868;47.360;18.984;2023-04-28T00:11:53;100868.34;;;2.23;100.00
43818;BME280;29868;47.360;18.984;2023-04-28T00:14:19;100869.78;;;2.17;100.00
43818;BME280;29868;47.360;18.984;2023-04-28T00:16:44;100866.84;;;2.11;100.00
43818;BME280;29868;47.360;18.984;2023-04-28T00:19:09;100867.56;;;2.09;100.00
43818;BME280;29868;47.360;18.984;2023-04-28T00:21:35;100861.28;;;2.04;100.00
43818;BME280;29868;47.360;18.984;2023-04-28T00:24:00;100860.78;;;2.09;100.00
43818;BME280;29868;47.360;18.984;2023-04-28T00:26:26;100864.28;;;2.11;100.00
43818;BME280;29868;47.360;18.984;2023-04-28T00:28:51;100869.34;;;2.25;100.00
43818;BME280;29868;47.360;18.984;2023-04-28T00:31:17;100863.16;;;2.21;100.00
43818;BME280;29868;47.360;18.984;2023-04-28T00:33:43;100854.91;;;2.27;100.00
43818;BME280;29868;47.360;18.984;2023-04-28T00:36:09;100859.16;;;2.11;100.00
43818;BME280;29868;47.360;18.984;2023-04-28T00:38:35;100860.03;;;2.12;100.00
43818;BME280;29868;47.360;18.984;2023-04-28T00:41:01;100862.44;;;1.94;100.00
43818;BME280;29868;47.360;18.984;2023-04-28T00:43:26;100857.56;;;1.84;100.00
43818;BME280;29868;47.360;18.984;2023-04-28T00:45:52;100859.94;;;1.81;100.00
43818;BME280;29868;47.360;18.984;2023-04-28T00:48:18;100863.31;;;1.94;100.00
43818;BME280;29868;47.360;18.984;2023-04-28T00:50:44;100859.00;;;1.79;100.00
43818;BME280;29868;47.360;18.984;2023-04-28T00:53:10;100868.06;;;1.74;100.00
43818;BME280;29868;47.360;18.984;2023-04-28T00:55:37;100864.78;;;1.61;100.00
43818;BME280;29868;47.360;18.984;2023-04-28T00:58:03;100862.31;;;1.63;100.00
43818;BME280;29868;47.360;18.984;2023-04-28T01:00:29;100860.91;;;1.68;100.00
43818;BME280;29868;47.360;18.984;2023-04-28T01:02:55;100867.34;;;1.61;100.00
43818;BME280;29868;47.360;18.984;2023-04-28T01:05:23;100872.03;;;1.68;100.00
43818;BME280;29868;47.360;18.984;2023-04-28T01:07:49;100871.50;;;1.59;100.00
43818;BME280;29868;47.360;18.984;2023-04-28T01:10:15;100865.03;;;1.51;100.00
43818;BME280;29868;47.360;18.984;2023-04-28T01:12:41;100867.41;;;1.48;100.00
43818;BME280;29868;47.360;18.984;2023-04-28T01:15:08;100875.72;;;1.44;100.00
43818;BME280;29868;47.360;18.984;2023-04-28T01:17:36;100872.97;;;1.41;100.00
43818;BME280;29868;47.360;18.984;2023-04-28T01:20:02;100868.19;;;1.47;100.00
43818;BME280;29868;47.360;18.984;2023-04-28T01:22:28;100879.22;;;1.46;100.00
43818;BME280;29868;47.360;18.984;2023-04-28T01:24:54;100875.75;;;1.31;100.00
43818;BME280;29868;47.360;18.984;2023-04-28T01:27:19;100876.28;;;1.25;100.00
43818;BME280;29868;47.360;18.984;2023-04-28T01:29:44;100870.53;;;1.29;100.00
43818;BME280;29868;47.360;18.984;2023-04-28T01:32:10;100865.78;;;1.35;100.00
43818;BME280;29868;47.360;18.984;2023-04-28T01:34:35;100877.78;;;1.36;100.00
43818;BME280;29868;47.360;18.984;2023-04-28T01:37:01;100879.19;;;1.31;100.00
43818;BME280;29868;47.360;18.984;2023-04-28T01:39:26;100874.59;;;1.26;100.00
43818;BME280;29868;47.360;18.984;2023-04-28T01:41:51;100865.47;;;1.16;100.00
43818;BME280;29868;47.360;18.984;2023-04-28T01:44:17;100867.31;;;1.18;100.00
43818;BME280;29868;47.360;18.984;2023-04-28T01:46:42;100864.78;;;1.18;100.00
43818;BME280;29868;47.360;18.984;2023-04-28T01:49:08;100858.59;;;1.15;100.00
43818;BME280;29868;47.360;18.984;2023-04-28T01:51:33;100848.69;;;1.21;100.00
43818;BME280;29868;47.360;18.984;2023-04-28T01:53:58;100852.31;;;1.25;100.00
43818;BME280;29868;47.360;18.984;2023-04-28T01:56:24;100852.31;;;1.25;100.00
43818;BME280;29868;47.360;18.984;2023-04-28T01:58:50;100851.56;;;1.26;100.00
43818;BME280;29868;47.360;18.984;2023-04-28T02:01:15;100867.88;;;1.28;100.00
43818;BME280;29868;47.360;18.984;2023-04-28T02:03:41;100864.97;;;1.21;100.00
43818;BME280;29868;47.360;18.984;2023-04-28T02:06:06;100866.16;;;1.13;100.00
43818;BME280;29868;47.360;18.984;2023-04-28T02:08:31;100871.38;;;1.15;100.00
43818;BME280;29868;47.360;18.984;2023-04-28T02:10:57;100867.75;;;1.11;100.00
43818;BME280;29868;47.360;18.984;2023-04-28T02:13:22;100875.22;;;1.08;100.00
43818;BME280;29868;47.360;18.984;2023-04-28T02:15:48;100869.16;;;1.06;100.00
43818;BME280;29868;47.360;18.984;2023-04-28T02:18:14;100876.09;;;1.09;100.00
43818;BME280;29868;47.360;18.984;2023-04-28T02:20:39;100870.09;;;1.08;100.00
43818;BME280;29868;47.360;18.984;2023-04-28T02:23:05;100873.47;;;1.07;100.00
43818;BME280;29868;47.360;18.984;2023-04-28T02:25:30;100872.19;;;1.01;100.00
43818;BME280;29868;47.360;18.984;2023-04-28T02:27:55;100877.63;;;0.92;100.00
43818;BME280;29868;47.360;18.984;2023-04-28T02:30:21;100879.78;;;0.86;100.00
43818;BME280;29868;47.360;18.984;2023-04-28T02:32:47;100885.03;;;0.87;100.00
43818;BME280;29868;47.360;18.984;2023-04-28T02:35:13;100888.34;;;0.86;100.00
43818;BME280;29868;47.360;18.984;2023-04-28T02:37:38;100882.16;;;0.83;100.00
43818;BME280;29868;47.360;18.984;2023-04-28T02:40:04;100888.75;;;0.79;100.00
43818;BME280;29868;47.360;18.984;2023-04-28T02:42:29;100881.00;;;0.78;100.00
43818;BME280;29868;47.360;18.984;2023-04-28T02:44:55;100887.09;;;0.80;100.00
43818;BME280;29868;47.360;18.984;2023-04-28T02:47:20;100887.66;;;0.76;100.00
43818;BME280;29868;47.360;18.984;2023-04-28T02:49:46;100885.91;;;0.88;100.00
43818;BME280;29868;47.360;18.984;2023-04-28T02:52:11;100883.34;;;0.88;100.00
43818;BME280;29868;47.360;18.984;2023-04-28T02:54:36;100886.88;;;0.90;100.00
43818;BME280;29868;47.360;18.984;2023-04-28T02:57:02;100880.06;;;0.90;100.00
43818;BME280;29868;47.360;18.984;2023-04-28T02:59:30;100890.94;;;0.73;100.00
43818;BME280;29868;47.360;18.984;2023-04-28T03:01:56;100891.63;;;0.70;100.00
43818;BME280;29868;47.360;18.984;2023-04-28T03:04:21;100893.00;;;0.65;100.00
43818;BME280;29868;47.360;18.984;2023-04-28T03:06:47;100887.91;;;0.65;100.00
43818;BME280;29868;47.360;18.984;2023-04-28T03:09:12;100893.22;;;0.68;100.00
43818;BME280;29868;47.360;18.984;2023-04-28T03:11:38;100891.13;;;0.76;100.00
43818;BME280;29868;47.360;18.984;2023-04-28T03:14:03;100893.56;;;0.75;100.00
43818;BME280;29868;47.360;18.984;2023-04-28T03:16:29;100893.78;;;0.78;100.00
43818;BME280;29868;47.360;18.984;2023-04-28T03:18:54;100892.69;;;0.74;100.00
43818;BME280;29868;47.360;18.984;2023-04-28T03:21:19;100898.22;;;0.80;100.00
43818;BME280;29868;47.360;18.984;2023-04-28T03:23:45;100897.69;;;0.86;100.00
43818;BME280;29868;47.360;18.984;2023-04-28T03:26:10;100892.19;;;0.93;100.00
43818;BME280;29868;47.360;18.984;2023-04-28T03:28:36;100898.78;;;0.89;100.00
43818;BME280;29868;47.360;18.984;2023-04-28T03:31:01;100887.47;;;0.86;100.00
43818;BME280;29868;47.360;18.984;2023-04-28T03:33:27;100895.94;;;0.85;100.00
43818;BME280;29868;47.360;18.984;2023-04-28T03:35:52;100893.09;;;0.80;100.00
43818;BME280;29868;47.360;18.984;2023-04-28T03:38:18;100895.53;;;0.79;100.00
43818;BME280;29868;47.360;18.984;2023-04-28T03:40:44;100910.47;;;0.99;100.00
43818;BME280;29868;47.360;18.984;2023-04-28T03:43:10;100903.41;;;0.95;100.00
43818;BME280;29868;47.360;18.984;2023-04-28T03:45:35;100902.81;;;0.99;100.00
43818;BME280;29868;47.360;18.984;2023-04-28T03:48:01;100894.81;;;1.08;100.00
43818;BME280;29868;47.360;18.984;2023-04-28T03:50:26;100898.13;;;1.20;100.00
43818;BME280;29868;47.360;18.984;2023-04-28T03:52:51;100906.19;;;1.26;100.00
43818;BME280;29868;47.360;18.984;2023-04-28T03:55:17;100909.09;;;1.32;100.00
43818;BME280;29868;47.360;18.984;2023-04-28T03:57:42;100908.53;;;1.51;100.00
43818;BME280;29868;47.360;18.984;2023-04-28T04:00:08;100900.13;;;1.67;100.00
43818;BME280;29868;47.360;18.984;2023-04-28T04:02:34;100908.34;;;1.76;100.00
43818;BME280;29868;47.360;18.984;2023-04-28T04:04:59;100907.75;;;1.95;100.00
43818;BME280;29868;47.360;18.984;2023-04-28T04:07:25;100905.84;;;2.21;100.00
43818;BME280;29868;47.360;18.984;2023-04-28T04:09:50;100907.28;;;3.07;100.00
43818;BME280;29868;47.360;18.984;2023-04-28T04:12:16;100915.19;;;4.26;100.00
43818;BME280;29868;47.360;18.984;2023-04-28T04:14:41;100928.66;;;4.92;100.00
43818;BME280;29868;47.360;18.984;2023-04-28T04:17:07;100928.31;;;5.59;100.00
43818;BME280;29868;47.360;18.984;2023-04-28T04:19:33;100933.41;;;5.77;100.00
43818;BME280;29868;47.360;18.984;2023-04-28T04:21:58;100922.47;;;6.02;100.00
43818;BME280;29868;47.360;18.984;2023-04-28T04:24:24;100932.19;;;7.14;100.00
43818;BME280;29868;47.360;18.984;2023-04-28T04:26:49;100934.84;;;7.84;100.00
43818;BME280;29868;47.360;18.984;2023-04-28T04:29:14;100945.81;;;8.26;100.00
43818;BME280;29868;47.360;18.984;2023-04-28T04:31:40;100947.13;;;8.65;100.00
43818;BME280;29868;47.360;18.984;2023-04-28T04:34:06;100949.13;;;9.29;100.00
43818;BME280;29868;47.360;18.984;2023-04-28T04:36:31;100944.78;;;9.28;100.00
43818;BME280;29868;47.360;18.984;2023-04-28T04:38:57;100938.78;;;8.75;100.00
43818;BME280;29868;47.360;18.984;2023-04-28T04:41:24;100939.78;;;8.27;100.00
43818;BME280;29868;47.360;18.984;2023-04-28T04:43:49;100940.81;;;9.12;100.00
43818;BME280;29868;47.360;18.984;2023-04-28T04:46:15;100939.22;;;9.74;100.00
43818;BME280;29868;47.360;18.984;2023-04-28T04:48:40;100938.47;;;10.78;100.00
43818;BME280;29868;47.360;18.984;2023-04-28T04:51:06;100932.53;;;11.61;100.00
43818;BME280;29868;47.360;18.984;2023-04-28T04:53:31;100943.00;;;12.06;100.00
43818;BME280;29868;47.360;18.984;2023-04-28T04:55:57;100949.25;;;11.74;100.00
43818;BME280;29868;47.360;18.984;2023-04-28T04:58:22;100948.00;;;11.96;100.00
43818;BME280;29868;47.360;18.984;2023-04-28T05:00:48;100950.03;;;12.59;100.00
43818;BME280;29868;47.360;18.984;2023-04-28T05:03:13;100935.25;;;13.79;100.00
43818;BME280;29868;47.360;18.984;2023-04-28T05:05:39;100942.75;;;14.31;96.50
43818;BME280;29868;47.360;18.984;2023-04-28T05:08:04;100944.63;;;14.44;84.41
43818;BME280;29868;47.360;18.984;2023-04-28T05:10:30;100941.25;;;14.54;78.18
43818;BME280;29868;47.360;18.984;2023-04-28T05:12:55;100944.97;;;14.82;71.41
43818;BME280;29868;47.360;18.984;2023-04-28T05:15:21;100950.03;;;14.59;67.66
43818;BME280;29868;47.360;18.984;2023-04-28T05:17:46;100947.09;;;14.30;63.45
43818;BME280;29868;47.360;18.984;2023-04-28T05:20:12;100953.31;;;14.43;63.13
43818;BME280;29868;47.360;18.984;2023-04-28T05:22:37;100951.97;;;13.28;62.64
43818;BME280;29868;47.360;18.984;2023-04-28T05:25:03;100953.34;;;13.67;63.17
43818;BME280;29868;47.360;18.984;2023-04-28T05:27:28;100956.44;;;14.08;62.03
43818;BME280;29868;47.360;18.984;2023-04-28T05:29:55;100957.31;;;14.06;61.17
43818;BME280;29868;47.360;18.984;2023-04-28T05:32:20;100951.59;;;14.47;59.17
43818;BME280;29868;47.360;18.984;2023-04-28T05:34:45;100957.59;;;13.57;60.87
43818;BME280;29868;47.360;18.984;2023-04-28T05:37:11;100952.09;;;14.09;59.62
43818;BME280;29868;47.360;18.984;2023-04-28T05:39:36;100960.28;;;13.63;62.31
43818;BME280;29868;47.360;18.984;2023-04-28T05:42:02;100966.38;;;14.42;58.99
43818;BME280;29868;47.360;18.984;2023-04-28T05:44:29;100958.50;;;15.53;57.01
43818;BME280;29868;47.360;18.984;2023-04-28T05:46:55;100962.00;;;15.55;53.81
43818;BME280;29868;47.360;18.984;2023-04-28T05:49:20;100966.47;;;15.65;53.08
43818;BME280;29868;47.360;18.984;2023-04-28T05:51:46;100967.97;;;15.28;52.12
43818;BME280;29868;47.360;18.984;2023-04-28T05:54:11;100963.47;;;15.04;53.36
43818;BME280;29868;47.360;18.984;2023-04-28T05:56:37;100972.75;;;14.70;54.80
43818;BME280;29868;47.360;18.984;2023-04-28T05:59:03;100967.53;;;16.47;51.87
43818;BME280;29868;47.360;18.984;2023-04-28T06:01:30;100966.16;;;14.20;55.77
43818;BME280;29868;47.360;18.984;2023-04-28T06:03:56;100972.09;;;13.37;59.41
43818;BME280;29868;47.360;18.984;2023-04-28T06:06:23;100961.03;;;12.43;60.83
43818;BME280;29868;47.360;18.984;2023-04-28T06:08:48;100966.56;;;12.12;63.49
43818;BME280;29868;47.360;18.984;2023-04-28T06:11:14;100973.81;;;12.30;63.73
43818;BME280;29868;47.360;18.984;2023-04-28T06:13:39;100971.50;;;12.46;62.96
43818;BME280;29868;47.360;18.984;2023-04-28T06:16:05;100973.88;;;12.82;62.50
43818;BME280;29868;47.360;18.984;2023-04-28T06:18:31;100976.28;;;12.21;62.02
43818;BME280;29868;47.360;18.984;2023-04-28T06:20:57;100976.84;;;13.06;62.79
43818;BME280;29868;47.360;18.984;2023-04-28T06:23:23;100986.66;;;13.23;59.94
43818;BME280;29868;47.360;18.984;2023-04-28T06:25:48;100980.34;;;14.47;54.75
43818;BME280;29868;47.360;18.984;2023-04-28T06:28:14;100985.00;;;14.72;55.14
43818;BME280;29868;47.360;18.984;2023-04-28T06:30:39;100981.09;;;15.31;53.30
43818;BME280;29868;47.360;18.984;2023-04-28T06:33:05;100972.22;;;15.09;52.72
43818;BME280;29868;47.360;18.984;2023-04-28T06:35:31;100980.34;;;14.47;53.88
43818;BME280;29868;47.360;18.984;2023-04-28T06:37:59;100979.88;;;14.01;57.27
43818;BME280;29868;47.360;18.984;2023-04-28T06:40:25;100973.38;;;14.46;58.93
43818;BME280;29868;47.360;18.984;2023-04-28T06:42:51;100971.22;;;14.05;60.68
43818;BME280;29868;47.360;18.984;2023-04-28T06:45:16;100982.31;;;14.63;60.51
43818;BME280;29868;47.360;18.984;2023-04-28T06:47:42;100972.41;;;13.57;61.28
43818;BME280;29868;47.360;18.984;2023-04-28T06:50:08;100975.47;;;13.27;64.40
43818;BME280;29868;47.360;18.984;2023-04-28T06:52:33;100973.41;;;13.09;63.11
43818;BME280;29868;47.360;18.984;2023-04-28T06:54:59;100976.72;;;12.99;64.33
43818;BME280;29868;47.360;18.984;2023-04-28T06:57:25;100977.69;;;13.05;63.59
43818;BME280;29868;47.360;18.984;2023-04-28T06:59:50;100982.09;;;13.08;62.36
43818;BME280;29868;47.360;18.984;2023-04-28T07:02:15;100971.50;;;12.99;61.83
43818;BME280;29868;47.360;18.984;2023-04-28T07:04:41;100971.63;;;13.06;62.92
43818;BME280;29868;47.360;18.984;2023-04-28T07:07:06;100969.94;;;13.69;61.12
43818;BME280;29868;47.360;18.984;2023-04-28T07:09:35;100965.97;;;14.02;59.82
43818;BME280;29868;47.360;18.984;2023-04-28T07:12:01;100971.09;;;13.93;56.51
43818;BME280;29868;47.360;18.984;2023-04-28T07:14:28;100971.47;;;13.53;57.50
43818;BME280;29868;47.360;18.984;2023-04-28T07:16:54;100973.34;;;14.40;56.91
43818;BME280;29868;47.360;18.984;2023-04-28T07:19:19;100968.94;;;15.44;55.48
43818;BME280;29868;47.360;18.984;2023-04-28T07:21:44;100967.56;;;14.71;56.44
43818;BME280;29868;47.360;18.984;2023-04-28T07:24:10;100972.25;;;14.18;53.72
43818;BME280;29868;47.360;18.984;2023-04-28T07:26:35;100975.78;;;14.24;55.24
43818;BME280;29868;47.360;18.984;2023-04-28T07:29:01;100971.53;;;14.35;56.33
43818;BME280;29868;47.360;18.984;2023-04-28T07:31:26;100969.88;;;14.41;57.17
43818;BME280;29868;47.360;18.984;2023-04-28T07:33:53;100965.81;;;14.73;53.56
43818;BME280;29868;47.360;18.984;2023-04-28T07:36:18;100975.69;;;14.17;54.58
43818;BME280;29868;47.360;18.984;2023-04-28T07:38:44;100972.59;;;13.72;57.37
43818;BME280;29868;47.360;18.984;2023-04-28T07:41:09;100972.00;;;13.95;55.08
43818;BME280;29868;47.360;18.984;2023-04-28T07:43:34;100964.38;;;14.16;56.32
43818;BME280;29868;47.360;18.984;2023-04-28T07:46:00;100958.69;;;14.54;55.08
43818;BME280;29868;47.360;18.984;2023-04-28T07:48:25;100956.69;;;15.40;55.30
43818;BME280;29868;47.360;18.984;2023-04-28T07:50:52;100957.72;;;15.66;51.81
43818;BME280;29868;47.360;18.984;2023-04-28T07:53:17;100958.69;;;15.84;51.48
43818;BME280;29868;47.360;18.984;2023-04-28T07:55:43;100950.00;;;16.06;50.87
43818;BME280;29868;47.360;18.984;2023-04-28T07:58:10;100942.25;;;16.76;51.66
43818;BME280;29868;47.360;18.984;2023-04-28T08:00:36;100935.09;;;15.94;50.56
43818;BME280;29868;47.360;18.984;2023-04-28T08:03:01;100934.28;;;16.00;50.88
43818;BME280;29868;47.360;18.984;2023-04-28T08:05:27;100932.59;;;16.59;50.47
43818;BME280;29868;47.360;18.984;2023-04-28T08:07:52;100918.59;;;16.43;49.47
43818;BME280;29868;47.360;18.984;2023-04-28T08:10:19;100915.06;;;16.16;49.37
43818;BME280;29868;47.360;18.984;2023-04-28T08:12:44;100920.31;;;16.12;48.12
43818;BME280;29868;47.360;18.984;2023-04-28T08:15:10;100915.13;;;16.56;46.13
43818;BME280;29868;47.360;18.984;2023-04-28T08:17:36;100918.59;;;16.61;48.61
43818;BME280;29868;47.360;18.984;2023-04-28T08:20:02;100906.31;;;17.15;45.48
43818;BME280;29868;47.360;18.984;2023-04-28T08:22:27;100902.88;;;16.76;45.73
43818;BME280;29868;47.360;18.984;2023-04-28T08:24:52;100897.53;;;17.19;46.11
43818;BME280;29868;47.360;18.984;2023-04-28T08:27:18;100892.38;;;16.46;45.87
43818;BME280;29868;47.360;18.984;2023-04-28T08:29:43;100902.91;;;16.80;46.07
43818;BME280;29868;47.360;18.984;2023-04-28T08:32:09;100897.66;;;16.76;46.89
43818;BME280;29868;47.360;18.984;2023-04-28T08:34:34;100895.88;;;16.92;45.68
43818;BME280;29868;47.360;18.984;2023-04-28T08:37:00;100902.78;;;17.32;45.20
43818;BME280;29868;47.360;18.984;2023-04-28T08:39:25;100896.53;;;17.60;43.70
43818;BME280;29868;47.360;18.984;2023-04-28T08:41:52;100903.28;;;18.15;42.23
43818;BME280;29868;47.360;18.984;2023-04-28T08:44:18;100892.66;;;18.26;41.65
43818;BME280;29868;47.360;18.984;2023-04-28T08:46:44;100894.59;;;17.99;41.13
43818;BME280;29868;47.360;18.984;2023-04-28T08:49:14;100898.13;;;17.96;37.49
43818;BME280;29868;47.360;18.984;2023-04-28T08:51:55;100895.69;;;17.55;37.09
43818;BME280;29868;47.360;18.984;2023-04-28T08:54:22;100886.66;;;18.05;37.52
43818;BME280;29868;47.360;18.984;2023-04-28T08:56:48;100885.81;;;18.05;37.72
43818;BME280;29868;47.360;18.984;2023-04-28T08:59:14;100883.31;;;17.79;36.33
43818;BME280;29868;47.360;18.984;2023-04-28T09:01:40;100889.47;;;17.76;37.34
43818;BME280;29868;47.360;18.984;2023-04-28T09:04:06;100894.81;;;17.53;37.58
43818;BME280;29868;47.360;18.984;2023-04-28T09:06:33;100882.91;;;18.40;38.05
43818;BME280;29868;47.360;18.984;2023-04-28T09:09:24;100884.81;;;18.22;36.13
43818;BME280;29868;47.360;18.984;2023-04-28T09:11:58;100888.22;;;18.35;36.61
43818;BME280;29868;47.360;18.984;2023-04-28T09:14:24;100889.91;;;18.41;38.75
43818;BME280;29868;47.360;18.984;2023-04-28T09:16:51;100886.91;;;17.56;36.77
43818;BME280;29868;47.360;18.984;2023-04-28T09:19:16;100892.84;;;17.95;35.09
43818;BME280;29868;47.360;18.984;2023-04-28T09:21:53;100885.16;;;17.58;36.82
43818;BME280;29868;47.360;18.984;2023-04-28T09:24:33;100884.72;;;18.32;37.33
43818;BME280;29868;47.360;18.984;2023-04-28T09:26:59;100886.28;;;18.57;38.21
43818;BME280;29868;47.360;18.984;2023-04-28T09:29:27;100884.25;;;17.64;33.71
43818;BME280;29868;47.360;18.984;2023-04-28T09:31:52;100889.53;;;17.56;34.66
43818;BME280;29868;47.360;18.984;2023-04-28T09:34:19;100886.16;;;17.30;34.48
43818;BME280;29868;47.360;18.984;2023-04-28T09:36:44;100897.56;;;17.24;36.25
43818;BME280;29868;47.360;18.984;2023-04-28T09:39:10;100890.44;;;17.46;37.15
43818;BME280;29868;47.360;18.984;2023-04-28T09:41:36;100890.34;;;17.70;35.32
43818;BME280;29868;47.360;18.984;2023-04-28T09:44:15;100885.09;;;17.67;36.10
43818;BME280;29868;47.360;18.984;2023-04-28T09:46:43;100881.47;;;17.97;35.06
43818;BME280;29868;47.360;18.984;2023-04-28T09:49:09;100874.34;;;18.13;35.10
43818;BME280;29868;47.360;18.984;2023-04-28T09:51:35;100876.03;;;18.20;36.56
43818;BME280;29868;47.360;18.984;2023-04-28T09:54:01;100875.19;;;18.20;35.10
43818;BME280;29868;47.360;18.984;2023-04-28T09:56:28;100865.53;;;18.20;36.11
43818;BME280;29868;47.360;18.984;2023-04-28T09:59:00;100858.66;;;18.01;35.63
43818;BME280;29868;47.360;18.984;2023-04-28T10:01:27;100861.09;;;18.27;36.76
43818;BME280;29868;47.360;18.984;2023-04-28T10:03:58;100855.22;;;17.93;36.12
43818;BME280;29868;47.360;18.984;2023-04-28T10:06:24;100843.66;;;18.18;36.94
43818;BME280;29868;47.360;18.984;2023-04-28T10:08:50;100840.06;;;18.26;35.92
43818;BME280;29868;47.360;18.984;2023-04-28T10:11:16;100835.44;;;18.54;37.67
43818;BME280;29868;47.360;18.984;2023-04-28T10:13:42;100831.44;;;18.10;36.70
43818;BME280;29868;47.360;18.984;2023-04-28T10:16:09;100819.78;;;18.37;36.19
43818;BME280;29868;47.360;18.984;2023-04-28T10:18:36;100814.38;;;18.52;37.29
43818;BME280;29868;47.360;18.984;2023-04-28T10:21:03;100832.06;;;18.39;36.83
43818;BME280;29868;47.360;18.984;2023-04-28T10:26:10;100822.03;;;18.83;37.31
43818;BME280;29868;47.360;18.984;2023-04-28T10:28:43;100808.81;;;18.87;35.83
43818;BME280;29868;47.360;18.984;2023-04-28T10:31:19;100811.16;;;19.10;38.15
43818;BME280;29868;47.360;18.984;2023-04-28T10:33:46;100810.53;;;18.91;36.54
43818;BME280;29868;47.360;18.984;2023-04-28T10:36:47;100803.28;;;18.24;36.21
43818;BME280;29868;47.360;18.984;2023-04-28T10:39:17;100802.31;;;18.33;36.79
43818;BME280;29868;47.360;18.984;2023-04-28T10:41:44;100782.72;;;18.64;36.91
43818;BME280;29868;47.360;18.984;2023-04-28T10:47:05;100783.38;;;17.92;36.20
43818;BME280;29868;47.360;18.984;2023-04-28T10:55:33;100782.03;;;18.44;34.98
43818;BME280;29868;47.360;18.984;2023-04-28T11:00:42;100770.28;;;19.47;34.75
43818;BME280;29868;47.360;18.984;2023-04-28T11:06:22;100757.94;;;20.57;33.33
43818;BME280;29868;47.360;18.984;2023-04-28T11:08:55;100762.72;;;19.85;34.98
43818;BME280;29868;47.360;18.984;2023-04-28T11:11:23;100764.09;;;19.49;34.29
43818;BME280;29868;47.360;18.984;2023-04-28T11:13:50;100767.66;;;18.80;34.16
43818;BME280;29868;47.360;18.984;2023-04-28T11:16:21;100763.53;;;18.53;33.98
43818;BME280;29868;47.360;18.984;2023-04-28T11:21:20;100747.94;;;18.33;36.52
43818;BME280;29868;47.360;18.984;2023-04-28T11:23:46;100748.13;;;18.16;36.43
43818;BME280;29868;47.360;18.984;2023-04-28T11:26:13;100741.88;;;18.30;37.69
43818;BME280;29868;47.360;18.984;2023-04-28T11:28:49;100748.75;;;18.40;36.92
43818;BME280;29868;47.360;18.984;2023-04-28T11:31:16;100740.94;;;18.34;36.75
43818;BME280;29868;47.360;18.984;2023-04-28T11:33:53;100756.81;;;18.21;36.52
43818;BME280;29868;47.360;18.984;2023-04-28T11:36:34;100749.03;;;18.12;37.99
43818;BME280;29868;47.360;18.984;2023-04-28T11:39:04;100748.63;;;18.54;36.48
43818;BME280;29868;47.360;18.984;2023-04-28T11:41:30;100737.59;;;19.00;37.05
43818;BME280;29868;47.360;18.984;2023-04-28T11:43:56;100725.53;;;19.45;39.04
43818;BME280;29868;47.360;18.984;2023-04-28T11:46:23;100726.63;;;19.89;35.48
43818;BME280;29868;47.360;18.984;2023-04-28T11:49:02;100727.81;;;19.71;36.66
43818;BME280;29868;47.360;18.984;2023-04-28T11:51:36;100721.50;;;19.19;35.77
43818;BME280;29868;47.360;18.984;2023-04-28T11:54:05;100725.16;;;19.69;36.62
43818;BME280;29868;47.360;18.984;2023-04-28T11:56:38;100721.88;;;19.55;36.44
43818;BME280;29868;47.360;18.984;2023-04-28T11:59:09;100722.41;;;19.18;37.02
43818;BME280;29868;47.360;18.984;2023-04-28T12:04:41;100711.78;;;18.57;38.58
43818;BME280;29868;47.360;18.984;2023-04-28T12:07:15;100713.66;;;18.44;38.50
43818;BME280;29868;47.360;18.984;2023-04-28T12:09:45;100716.31;;;18.42;38.46
43818;BME280;29868;47.360;18.984;2023-04-28T12:12:27;100716.53;;;18.19;39.05
43818;BME280;29868;47.360;18.984;2023-04-28T12:14:59;100712.94;;;18.30;39.44
43818;BME280;29868;47.360;18.984;2023-04-28T12:19:56;100698.97;;;19.02;38.68
43818;BME280;29868;47.360;18.984;2023-04-28T12:22:23;100697.53;;;19.38;39.57
43818;BME280;29868;47.360;18.984;2023-04-28T12:25:05;100690.56;;;19.34;37.41
43818;BME280;29868;47.360;18.984;2023-04-28T12:27:33;100694.53;;;19.61;36.70
43818;BME280;29868;47.360;18.984;2023-04-28T12:29:59;100687.66;;;19.52;37.78
43818;BME280;29868;47.360;18.984;2023-04-28T12:32:41;100683.31;;;20.02;36.77
43818;BME280;29868;47.360;18.984;2023-04-28T12:35:10;100681.97;;;19.23;37.06
43818;BME280;29868;47.360;18.984;2023-04-28T12:37:36;100681.13;;;18.51;38.08
43818;BME280;29868;47.360;18.984;2023-04-28T12:40:06;100667.72;;;18.76;38.61
43818;BME280;29868;47.360;18.984;2023-04-28T12:42:33;100670.00;;;19.00;38.84
43818;BME280;29868;47.360;18.984;2023-04-28T12:44:58;100657.13;;;18.80;38.75
43818;BME280;29868;47.360;18.984;2023-04-28T12:47:24;100657.94;;;19.42;38.34
43818;BME280;29868;47.360;18.984;2023-04-28T12:49:49;100648.97;;;19.54;37.79
43818;BME280;29868;47.360;18.984;2023-04-28T12:52:18;100629.88;;;19.41;38.45
43818;BME280;29868;47.360;18.984;2023-04-28T12:54:43;100633.66;;;19.24;38.13
43818;BME280;29868;47.360;18.984;2023-04-28T12:57:17;100623.63;;;19.47;37.57
43818;BME280;29868;47.360;18.984;2023-04-28T12:59:43;100611.34;;;19.97;38.48
43818;BME280;29868;47.360;18.984;2023-04-28T13:02:09;100607.25;;;19.81;38.92
43818;BME280;29868;47.360;18.984;2023-04-28T13:04:34;100595.09;;;20.18;36.73